createdAt,value
2023-03-10T00:00:14.536Z,88.05
2023-03-10T00:02:51.172Z,88.56
2023-03-10T00:05:23.587Z,85.65
2023-03-10T00:07:54.303Z,88.21
2023-03-10T00:10:25.229Z,87.71
2023-03-10T00:12:55.490Z,84.80
2023-03-10T00:15:26.969Z,88.46
2023-03-10T00:17:59.770Z,88.02
2023-03-10T00:20:30.126Z,87.95
2023-03-10T00:23:00.543Z,86.28
2023-03-10T00:25:31.166Z,85.91
2023-03-10T00:28:01.542Z,88.69
2023-03-10T00:30:35.280Z,90.67
2023-03-10T00:33:08.098Z,91.44
2023-03-10T00:35:38.382Z,94.60
2023-03-10T00:38:09.103Z,91.89
2023-03-10T00:40:40.129Z,95.02
2023-03-10T00:43:10.681Z,97.00
2023-03-10T00:45:41.156Z,96.16
2023-03-10T00:48:14.323Z,94.79
2023-03-10T00:50:44.529Z,92.72
2023-03-10T00:53:14.812Z,95.02
2023-03-10T00:55:45.685Z,96.58
2023-03-10T00:58:16.011Z,92.62
2023-03-10T01:00:47.415Z,94.82
2023-03-10T01:03:20.668Z,97.20
2023-03-10T01:05:52.341Z,97.94
2023-03-10T01:08:23.470Z,97.01
2023-03-10T01:10:54.483Z,98.76
2023-03-10T01:13:24.988Z,98.77
2023-03-10T01:15:56.088Z,100.00
2023-03-10T01:18:29.904Z,100.00
2023-03-10T01:21:01.843Z,100.00
2023-03-10T01:23:32.594Z,100.00
2023-03-10T01:26:04.413Z,100.00
2023-03-10T01:28:35.524Z,100.00
2023-03-10T01:31:08.217Z,100.00
2023-03-10T01:33:43.069Z,100.00
2023-03-10T01:36:16.767Z,100.00
2023-03-10T01:38:55.032Z,100.00
2023-03-10T01:41:26.511Z,100.00
2023-03-10T01:43:58.628Z,100.00
2023-03-10T01:46:42.215Z,100.00
2023-03-10T01:49:37.740Z,100.00
2023-03-10T01:52:16.361Z,100.00
2023-03-10T01:54:53.239Z,100.00
2023-03-10T01:57:29.857Z,100.00
2023-03-10T02:00:01.818Z,100.00
2023-03-10T02:02:38.536Z,100.00
2023-03-10T02:05:13.516Z,100.00
2023-03-10T02:07:46.249Z,100.00
2023-03-10T02:10:19.287Z,100.00
2023-03-10T02:12:52.257Z,100.00
2023-03-10T02:15:24.658Z,100.00
2023-03-10T02:17:56.689Z,100.00
2023-03-10T02:20:43.430Z,100.00
2023-03-10T02:23:22.851Z,100.00
2023-03-10T02:26:01.218Z,100.00
2023-03-10T02:28:35.224Z,100.00
2023-03-10T02:31:07.440Z,100.00
2023-03-10T02:33:42.386Z,100.00
2023-03-10T02:36:20.775Z,100.00
2023-03-10T02:38:51.701Z,100.00
2023-03-10T02:41:29.549Z,100.00
2023-03-10T02:44:07.937Z,100.00
2023-03-10T02:46:38.614Z,100.00
2023-03-10T02:49:12.187Z,100.00
2023-03-10T02:51:49.579Z,100.00
2023-03-10T02:54:23.158Z,100.00
2023-03-10T02:56:53.518Z,100.00
2023-03-10T02:59:26.639Z,100.00
2023-03-10T03:01:58.483Z,100.00
2023-03-10T03:04:29.765Z,100.00
2023-03-10T03:07:00.432Z,100.00
2023-03-10T03:09:30.934Z,100.00
2023-03-10T03:12:03.005Z,100.00
2023-03-10T03:14:36.230Z,100.00
2023-03-10T03:17:09.145Z,100.00
2023-03-10T03:19:39.464Z,100.00
2023-03-10T03:22:10.072Z,100.00
2023-03-10T03:24:40.549Z,100.00
2023-03-10T03:27:10.863Z,100.00
2023-03-10T03:29:44.811Z,100.00
2023-03-10T03:32:16.821Z,100.00
2023-03-10T03:34:48.292Z,100.00
2023-03-10T03:37:18.725Z,100.00
2023-03-10T03:39:53.474Z,100.00
2023-03-10T03:42:24.587Z,100.00
2023-03-10T03:45:05.157Z,100.00
2023-03-10T03:47:35.674Z,100.00
2023-03-10T03:50:11.026Z,100.00
2023-03-10T03:52:42.190Z,100.00
2023-03-10T03:55:17.344Z,100.00
2023-03-10T03:57:49.164Z,100.00
2023-03-10T04:00:28.350Z,100.00
2023-03-10T04:03:08.735Z,100.00
2023-03-10T04:05:40.972Z,100.00
2023-03-10T04:08:12.014Z,100.00
2023-03-10T04:10:42.558Z,100.00
2023-03-10T04:13:13.220Z,100.00
2023-03-10T04:15:46.141Z,100.00
2023-03-10T04:18:16.384Z,100.00
2023-03-10T04:20:46.964Z,100.00
2023-03-10T04:23:17.401Z,100.00
2023-03-10T04:25:47.668Z,100.00
2023-03-10T04:28:18.870Z,100.00
2023-03-10T04:30:54.295Z,100.00
2023-03-10T04:33:28.023Z,100.00
2023-03-10T04:35:59.192Z,100.00
2023-03-10T04:38:29.394Z,100.00
2023-03-10T04:41:01.492Z,100.00
2023-03-10T04:43:36.282Z,100.00
2023-03-10T04:46:09.538Z,100.00
2023-03-10T04:48:40.218Z,100.00
2023-03-10T04:51:15.199Z,100.00
2023-03-10T04:53:51.241Z,100.00
2023-03-10T04:56:22.462Z,100.00
2023-03-10T04:58:52.600Z,100.00
2023-03-10T05:01:25.602Z,100.00
2023-03-10T05:04:02.405Z,100.00
2023-03-10T05:06:34.516Z,100.00
2023-03-10T05:09:15.376Z,100.00
2023-03-10T05:11:45.863Z,100.00
2023-03-10T05:14:20.021Z,100.00
2023-03-10T05:16:53.857Z,100.00
2023-03-10T05:19:24.322Z,100.00
2023-03-10T05:21:57.268Z,100.00
2023-03-10T05:24:27.559Z,100.00
2023-03-10T05:26:57.984Z,100.00
2023-03-10T05:29:28.808Z,100.00
2023-03-10T05:32:09.623Z,100.00
2023-03-10T05:34:43.490Z,100.00
2023-03-10T05:37:13.801Z,100.00
2023-03-10T05:39:44.004Z,100.00
2023-03-10T05:42:19.234Z,100.00
2023-03-10T05:44:49.676Z,100.00
2023-03-10T05:47:23.079Z,100.00
2023-03-10T05:49:53.319Z,100.00
2023-03-10T05:52:23.610Z,100.00
2023-03-10T05:54:54.373Z,100.00
2023-03-10T05:57:24.882Z,100.00
2023-03-10T05:59:55.270Z,100.00
2023-03-10T06:02:28.996Z,100.00
2023-03-10T06:04:59.091Z,100.00
2023-03-10T06:07:29.368Z,100.00
2023-03-10T06:09:59.709Z,100.00
2023-03-10T06:12:30.215Z,100.00
2023-03-10T06:15:00.413Z,100.00
2023-03-10T06:17:33.452Z,100.00
2023-03-10T06:20:03.599Z,100.00
2023-03-10T06:22:33.838Z,100.00
2023-03-10T06:25:05.216Z,100.00
2023-03-10T06:27:35.854Z,100.00
2023-03-10T06:30:11.101Z,100.00
2023-03-10T06:32:44.240Z,100.00
2023-03-10T06:35:17.752Z,100.00
2023-03-10T06:37:48.084Z,100.00
2023-03-10T06:40:18.775Z,100.00
2023-03-10T06:42:49.124Z,100.00
2023-03-10T06:45:20.711Z,100.00
2023-03-10T06:47:55.577Z,100.00
2023-03-10T06:50:31.124Z,100.00
2023-03-10T06:53:01.685Z,100.00
2023-03-10T06:55:31.830Z,100.00
2023-03-10T06:58:01.950Z,100.00
2023-03-10T07:00:32.845Z,100.00
2023-03-10T07:03:05.885Z,100.00
2023-03-10T07:05:35.960Z,100.00
2023-03-10T07:08:06.095Z,100.00
2023-03-10T07:10:36.403Z,100.00
2023-03-10T07:13:06.861Z,100.00
2023-03-10T07:15:39.847Z,100.00
2023-03-10T07:18:13.534Z,100.00
2023-03-10T07:20:45.513Z,100.00
2023-03-10T07:23:16.582Z,100.00
2023-03-10T07:25:47.011Z,100.00
2023-03-10T07:28:17.495Z,100.00
2023-03-10T07:30:48.056Z,100.00
2023-03-10T07:33:21.129Z,100.00
2023-03-10T07:35:52.099Z,100.00
2023-03-10T07:38:22.410Z,100.00
2023-03-10T07:40:52.836Z,100.00
2023-03-10T07:43:23.324Z,100.00
2023-03-10T07:45:53.798Z,100.00
2023-03-10T07:48:26.995Z,100.00
2023-03-10T07:51:02.188Z,100.00
2023-03-10T07:53:33.243Z,100.00
2023-03-10T07:56:06.889Z,100.00
2023-03-10T07:58:38.046Z,100.00
2023-03-10T08:01:15.469Z,100.00
2023-03-10T08:03:49.555Z,100.00
2023-03-10T08:06:25.421Z,100.00
2023-03-10T08:08:59.689Z,100.00
2023-03-10T08:11:33.452Z,100.00
2023-03-10T08:14:04.471Z,100.00
2023-03-10T08:16:35.642Z,100.00
2023-03-10T08:19:08.638Z,100.00
2023-03-10T08:21:39.460Z,100.00
2023-03-10T08:24:10.339Z,100.00
2023-03-10T08:26:41.155Z,100.00
2023-03-10T08:29:11.643Z,100.00
2023-03-10T08:31:43.007Z,100.00
2023-03-10T08:34:16.779Z,100.00
2023-03-10T08:36:47.681Z,100.00
2023-03-10T08:39:20.599Z,100.00
2023-03-10T08:41:51.782Z,100.00
2023-03-10T08:44:22.919Z,100.00
2023-03-10T08:46:54.492Z,100.00
2023-03-10T08:49:28.496Z,100.00
2023-03-10T08:52:00.252Z,100.00
2023-03-10T08:54:35.622Z,100.00
2023-03-10T08:57:06.130Z,100.00
2023-03-10T08:59:36.435Z,100.00
2023-03-10T09:02:07.440Z,100.00
2023-03-10T09:04:53.653Z,100.00
2023-03-10T09:07:25.436Z,100.00
2023-03-10T09:10:03.828Z,100.00
2023-03-10T09:12:37.655Z,100.00
2023-03-10T09:15:10.554Z,100.00
2023-03-10T09:17:41.642Z,100.00
2023-03-10T09:20:18.498Z,100.00
2023-03-10T09:22:48.782Z,100.00
2023-03-10T09:25:19.081Z,100.00
2023-03-10T09:27:51.412Z,100.00
2023-03-10T09:30:23.625Z,100.00
2023-03-10T09:32:55.876Z,100.00
2023-03-10T09:35:31.774Z,100.00
2023-03-10T09:38:04.113Z,100.00
2023-03-10T09:40:36.425Z,100.00
2023-03-10T09:43:11.017Z,100.00
2023-03-10T09:45:53.878Z,100.00
2023-03-10T09:48:43.775Z,100.00
2023-03-10T09:51:24.255Z,100.00
2023-03-10T09:54:11.757Z,100.00
2023-03-10T09:56:43.334Z,100.00
2023-03-10T09:59:22.902Z,100.00
2023-03-10T10:01:57.327Z,100.00
2023-03-10T10:04:40.012Z,100.00
2023-03-10T10:07:20.473Z,100.00
2023-03-10T10:09:57.324Z,100.00
2023-03-10T10:12:30.200Z,100.00
2023-03-10T10:15:09.943Z,100.00
2023-03-10T10:18:11.788Z,100.00
2023-03-10T10:20:54.594Z,100.00
2023-03-10T10:23:42.659Z,100.00
2023-03-10T10:26:17.274Z,100.00
2023-03-10T10:28:53.417Z,100.00
2023-03-10T10:31:28.673Z,100.00
2023-03-10T10:34:07.880Z,100.00
2023-03-10T10:36:58.389Z,100.00
2023-03-10T10:39:37.859Z,100.00
2023-03-10T10:42:25.108Z,100.00
2023-03-10T10:45:03.775Z,100.00
2023-03-10T10:47:45.423Z,100.00
2023-03-10T10:50:28.493Z,100.00
2023-03-10T10:56:25.921Z,100.00
2023-03-10T11:02:41.927Z,100.00
2023-03-10T11:06:58.436Z,100.00
2023-03-10T11:08:43.100Z,100.00
2023-03-10T11:11:32.458Z,100.00
2023-03-10T11:14:34.562Z,100.00
2023-03-10T11:17:13.049Z,100.00
2023-03-10T11:20:02.297Z,100.00
2023-03-10T11:22:44.038Z,100.00
2023-03-10T11:25:29.702Z,100.00
2023-03-10T11:28:23.770Z,100.00
2023-03-10T11:31:37.313Z,100.00
2023-03-10T11:34:38.274Z,100.00
2023-03-10T11:37:29.408Z,100.00
2023-03-10T11:40:24.648Z,100.00
2023-03-10T11:43:14.921Z,100.00
2023-03-10T11:45:57.967Z,100.00
2023-03-10T11:48:55.437Z,100.00
2023-03-10T11:51:45.368Z,100.00
2023-03-10T11:57:39.922Z,100.00
2023-03-10T12:00:35.394Z,100.00
2023-03-10T12:04:19.674Z,100.00
2023-03-10T12:07:05.605Z,100.00
2023-03-10T12:10:10.658Z,100.00
2023-03-10T12:12:48.574Z,100.00
2023-03-10T12:15:34.724Z,100.00
2023-03-10T12:18:54.282Z,100.00
2023-03-10T12:22:15.618Z,100.00
2023-03-10T12:25:14.266Z,100.00
2023-03-10T12:32:22.075Z,100.00
2023-03-10T12:38:53.295Z,100.00
2023-03-10T12:42:15.002Z,100.00
2023-03-10T12:45:25.568Z,100.00
2023-03-10T12:48:07.631Z,100.00
2023-03-10T12:50:54.010Z,100.00
2023-03-10T12:53:48.764Z,100.00
2023-03-10T12:56:41.257Z,100.00
2023-03-10T12:59:22.476Z,100.00
2023-03-10T13:02:02.939Z,100.00
2023-03-10T13:04:35.542Z,100.00
2023-03-10T13:07:06.485Z,100.00
2023-03-10T13:09:43.810Z,100.00
2023-03-10T13:12:24.403Z,100.00
2023-03-10T13:15:04.364Z,100.00
2023-03-10T13:17:36.200Z,100.00
2023-03-10T13:20:16.571Z,100.00
2023-03-10T13:22:56.535Z,100.00
2023-03-10T13:25:36.431Z,100.00
2023-03-10T13:28:22.006Z,100.00
2023-03-10T13:30:52.661Z,100.00
2023-03-10T13:33:28.570Z,100.00
2023-03-10T13:35:59.135Z,100.00
2023-03-10T13:38:31.169Z,100.00
2023-03-10T13:41:07.566Z,100.00
2023-03-10T13:43:45.429Z,100.00
2023-03-10T13:46:23.219Z,100.00
2023-03-10T13:48:54.857Z,100.00
2023-03-10T13:51:32.102Z,100.00
2023-03-10T13:54:22.969Z,100.00
2023-03-10T13:56:56.893Z,100.00
2023-03-10T13:59:35.197Z,100.00
2023-03-10T14:02:07.172Z,100.00
2023-03-10T14:04:50.485Z,100.00
2023-03-10T14:07:27.493Z,100.00
2023-03-10T14:10:23.918Z,100.00
2023-03-10T14:13:05.530Z,100.00
2023-03-10T14:15:39.922Z,100.00
2023-03-10T14:18:31.562Z,100.00
2023-03-10T14:22:00.025Z,100.00
2023-03-10T14:24:32.033Z,100.00
2023-03-10T14:27:05.469Z,100.00
2023-03-10T14:29:35.977Z,100.00
2023-03-10T14:32:19.473Z,100.00
2023-03-10T14:34:51.475Z,100.00
2023-03-10T14:37:24.001Z,100.00
2023-03-10T14:39:54.113Z,100.00
2023-03-10T14:42:32.449Z,100.00
2023-03-10T14:45:11.136Z,100.00
2023-03-10T14:47:44.797Z,100.00
2023-03-10T14:50:17.810Z,100.00
2023-03-10T14:52:48.893Z,100.00
2023-03-10T14:55:20.330Z,100.00
2023-03-10T14:58:02.098Z,100.00
2023-03-10T15:00:34.032Z,100.00
2023-03-10T15:03:07.271Z,100.00
2023-03-10T15:05:47.861Z,100.00
2023-03-10T15:08:20.009Z,100.00
2023-03-10T15:10:54.220Z,100.00
2023-03-10T15:13:27.148Z,100.00
2023-03-10T15:15:57.739Z,100.00
2023-03-10T15:18:30.815Z,100.00
2023-03-10T15:21:02.613Z,100.00
2023-03-10T15:23:34.348Z,100.00
2023-03-10T15:26:09.790Z,100.00
2023-03-10T15:28:40.708Z,100.00
2023-03-10T15:31:11.214Z,100.00
2023-03-10T15:33:44.320Z,100.00
2023-03-10T15:36:15.236Z,100.00
2023-03-10T15:38:46.160Z,100.00
2023-03-10T15:41:17.415Z,100.00
2023-03-10T15:43:47.899Z,100.00
2023-03-10T15:46:21.513Z,100.00
2023-03-10T15:48:54.614Z,100.00
2023-03-10T15:51:25.000Z,100.00
2023-03-10T15:53:55.465Z,100.00
2023-03-10T15:56:27.905Z,100.00
2023-03-10T15:58:59.079Z,100.00
2023-03-10T16:01:30.336Z,100.00
2023-03-10T16:04:06.266Z,100.00
2023-03-10T16:06:37.417Z,100.00
2023-03-10T16:09:09.083Z,100.00
2023-03-10T16:11:39.707Z,100.00
2023-03-10T16:14:09.829Z,100.00
2023-03-10T16:16:40.243Z,100.00
2023-03-10T16:19:13.376Z,100.00
2023-03-10T16:21:45.460Z,100.00
2023-03-10T16:24:16.632Z,100.00
2023-03-10T16:26:47.177Z,100.00
2023-03-10T16:29:18.849Z,100.00
2023-03-10T16:31:49.208Z,100.00
2023-03-10T16:34:23.069Z,100.00
2023-03-10T16:36:54.864Z,100.00
2023-03-10T16:39:25.989Z,100.00
2023-03-10T16:41:56.036Z,100.00
2023-03-10T16:44:26.625Z,100.00
2023-03-10T16:46:56.821Z,100.00
2023-03-10T16:49:32.460Z,100.00
2023-03-10T16:52:04.418Z,100.00
2023-03-10T16:54:34.736Z,100.00
2023-03-10T16:57:07.046Z,100.00
2023-03-10T16:59:37.823Z,100.00
2023-03-10T17:02:08.274Z,100.00
2023-03-10T17:04:41.412Z,100.00
2023-03-10T17:07:11.557Z,100.00
2023-03-10T17:09:41.789Z,100.00
2023-03-10T17:12:12.547Z,100.00
2023-03-10T17:14:44.624Z,100.00
2023-03-10T17:17:15.107Z,100.00
2023-03-10T17:19:47.843Z,100.00
2023-03-10T17:22:18.015Z,100.00
2023-03-10T17:24:48.203Z,100.00
2023-03-10T17:27:18.640Z,100.00
2023-03-10T17:29:48.895Z,100.00
2023-03-10T17:32:20.092Z,100.00
2023-03-10T17:34:54.142Z,100.00
2023-03-10T17:37:24.317Z,100.00
2023-03-10T17:39:55.051Z,100.00
2023-03-10T17:42:25.471Z,100.00
2023-03-10T17:44:56.259Z,100.00
2023-03-10T17:47:27.035Z,100.00
2023-03-10T17:50:02.252Z,100.00
2023-03-10T17:52:32.631Z,100.00
2023-03-10T17:55:02.703Z,100.00
2023-03-10T17:57:33.032Z,100.00
2023-03-10T18:00:04.305Z,100.00
2023-03-10T18:02:42.384Z,100.00
2023-03-10T18:05:16.153Z,100.00
2023-03-10T18:07:46.645Z,100.00
2023-03-10T18:10:18.076Z,100.00
2023-03-10T18:12:48.617Z,100.00
2023-03-10T18:15:19.452Z,100.00
2023-03-10T18:17:49.761Z,100.00
2023-03-10T18:20:24.558Z,100.00
2023-03-10T18:22:55.604Z,100.00
2023-03-10T18:25:26.217Z,100.00
2023-03-10T18:27:56.929Z,100.00
2023-03-10T18:30:27.453Z,100.00
2023-03-10T18:32:58.364Z,100.00
2023-03-10T18:35:32.214Z,100.00
2023-03-10T18:38:04.672Z,100.00
2023-03-10T18:40:35.796Z,100.00
2023-03-10T18:43:07.200Z,100.00
2023-03-10T18:45:39.674Z,100.00
2023-03-10T18:48:12.781Z,100.00
2023-03-10T18:50:45.874Z,100.00
2023-03-10T18:53:17.011Z,100.00
2023-03-10T18:55:47.807Z,100.00
2023-03-10T18:58:21.657Z,100.00
2023-03-10T19:01:05.460Z,100.00
2023-03-10T19:03:38.561Z,100.00
2023-03-10T19:06:13.320Z,100.00
2023-03-10T19:08:44.307Z,100.00
2023-03-10T19:11:15.683Z,100.00
2023-03-10T19:13:48.666Z,100.00
2023-03-10T19:16:22.110Z,100.00
2023-03-10T19:19:03.249Z,100.00
2023-03-10T19:21:41.548Z,100.00
2023-03-10T19:24:14.010Z,100.00
2023-03-10T19:26:44.262Z,100.00
2023-03-10T19:29:15.816Z,100.00
2023-03-10T19:31:46.169Z,100.00
2023-03-10T19:34:17.726Z,100.00
2023-03-10T19:36:51.922Z,100.00
2023-03-10T19:39:24.254Z,100.00
2023-03-10T19:41:54.989Z,100.00
2023-03-10T19:44:27.537Z,100.00
2023-03-10T19:46:58.734Z,100.00
2023-03-10T19:49:34.222Z,100.00
2023-03-10T19:52:08.974Z,100.00
2023-03-10T19:54:41.246Z,100.00
2023-03-10T19:57:13.889Z,100.00
2023-03-10T19:59:45.568Z,100.00
2023-03-10T20:02:19.492Z,100.00
2023-03-10T20:04:50.791Z,100.00
2023-03-10T20:29:22.724Z,100.00
2023-03-10T20:31:55.329Z,100.00
2023-03-10T20:34:25.914Z,100.00
2023-03-10T20:36:55.998Z,100.00
2023-03-10T20:39:26.671Z,100.00
2023-03-10T20:41:56.608Z,100.00
2023-03-10T20:44:27.403Z,100.00
2023-03-10T20:46:59.942Z,100.00
2023-03-10T20:49:29.880Z,100.00
2023-03-10T20:51:59.814Z,100.00
2023-03-10T20:54:29.778Z,100.00
2023-03-10T20:56:59.844Z,100.00
2023-03-10T20:59:29.889Z,100.00
2023-03-10T21:02:02.626Z,100.00
2023-03-10T21:04:32.608Z,100.00
2023-03-10T21:07:02.862Z,100.00
2023-03-10T21:09:32.797Z,100.00
2023-03-10T21:12:03.368Z,100.00
2023-03-10T21:14:33.382Z,100.00
2023-03-10T21:17:06.945Z,100.00
2023-03-10T21:19:36.950Z,100.00
2023-03-10T21:22:07.124Z,100.00
2023-03-10T21:24:37.998Z,100.00
2023-03-10T21:27:08.423Z,100.00
2023-03-10T21:29:39.988Z,100.00
2023-03-10T21:32:12.784Z,100.00
2023-03-10T21:34:42.863Z,100.00
2023-03-10T21:37:13.616Z,100.00
2023-03-10T21:39:43.550Z,100.00
2023-03-10T21:42:16.397Z,100.00
2023-03-10T21:44:48.012Z,100.00
2023-03-10T21:47:20.705Z,100.00
2023-03-10T21:49:50.649Z,100.00
2023-03-10T21:52:20.876Z,100.00
2023-03-10T21:54:50.872Z,100.00
2023-03-10T21:57:20.911Z,100.00
2023-03-10T21:59:50.868Z,100.00
2023-03-10T22:02:30.200Z,100.00
2023-03-10T22:05:00.448Z,100.00
2023-03-10T22:07:30.515Z,100.00
2023-03-10T22:10:00.497Z,100.00
2023-03-10T22:12:30.438Z,100.00
2023-03-10T22:15:00.462Z,100.00
2023-03-10T22:17:33.070Z,100.00
2023-03-10T22:20:06.665Z,100.00
2023-03-10T22:22:37.448Z,100.00
2023-03-10T22:25:08.694Z,100.00
2023-03-10T22:27:38.669Z,100.00
2023-03-10T22:30:10.909Z,100.00
2023-03-10T22:32:44.241Z,100.00
2023-03-10T22:35:14.519Z,100.00
2023-03-10T22:37:46.145Z,100.00
2023-03-10T22:40:20.322Z,100.00
2023-03-10T22:42:50.900Z,100.00
2023-03-10T22:45:26.236Z,100.00
2023-03-10T22:48:01.871Z,100.00
2023-03-10T22:50:35.686Z,100.00
2023-03-10T22:53:08.792Z,100.00
2023-03-10T22:55:38.760Z,100.00
2023-03-10T22:58:10.046Z,100.00
2023-03-10T23:00:42.477Z,100.00
2023-03-10T23:03:16.341Z,100.00
2023-03-10T23:05:46.643Z,100.00
2023-03-10T23:08:16.897Z,100.00
2023-03-10T23:10:47.399Z,100.00
2023-03-10T23:13:19.672Z,100.00
2023-03-10T23:15:49.936Z,100.00
2023-03-10T23:18:22.546Z,100.00
2023-03-10T23:20:53.113Z,100.00
2023-03-10T23:23:23.129Z,100.00
2023-03-10T23:25:53.552Z,100.00
2023-03-10T23:28:24.518Z,100.00
2023-03-10T23:30:54.786Z,100.00
2023-03-10T23:33:27.596Z,100.00
2023-03-10T23:35:57.630Z,100.00
2023-03-10T23:38:30.116Z,100.00
2023-03-10T23:41:00.117Z,100.00
2023-03-10T23:43:30.296Z,100.00
2023-03-10T23:46:00.332Z,100.00
2023-03-10T23:48:33.642Z,100.00
2023-03-10T23:51:03.978Z,100.00
2023-03-10T23:53:34.380Z,100.00
2023-03-10T23:56:04.400Z,100.00
2023-03-10T23:58:34.473Z,100.00
